Time;durP1;ratioP1;P1;durP2;ratioP2;P2;SDS_P1;SDS_P2;PMS_P1;PMS_P2;Temp;Humidity;BMP_temperature;BMP_pressure;BME280_temperature;BME280_humidity;BME280_pressure;Samples;Min_cycle;Max_cycle;Signal;HPM_P1;HPM_P2
2021/03/02 00:02:08;;;;;;;;;;;;;;;17.78;67.01;102827.41;5036585;28;1628;-63
2021/03/02 00:04:33;;;;;;;;;;;;;;;17.82;67.44;102828.13;5036502;28;1606;-59
2021/03/02 00:06:59;;;;;;;;;;;;;;;17.78;66.29;102830.09;5036888;28;1621;-57
2021/03/02 00:09:24;;;;;;;;;;;;;;;17.79;66.38;102826.47;5036496;28;1501;-57
2021/03/02 00:11:50;;;;;;;;;;;;;;;17.80;66.37;102832.69;5036395;28;1644;-61
2021/03/02 00:14:16;;;;;;;;;;;;;;;17.80;66.86;102822.84;5036711;28;1508;-57
2021/03/02 00:16:43;;;;;;;;;;;;;;;17.80;66.13;102833.56;5035649;28;1513;-64
2021/03/02 00:19:09;;;;;;;;;;;;;;;17.80;66.70;102838.03;5036241;28;1927;-57
2021/03/02 00:21:39;;;;;;;;;;;;;;;17.79;66.73;102826.47;5036618;28;1598;-64
2021/03/02 00:24:06;;;;;;;;;;;;;;;17.77;66.35;102827.53;5036292;28;1632;-64
2021/03/02 00:26:32;;;;;;;;;;;;;;;17.77;66.67;102814.13;5036271;28;1529;-57
2021/03/02 00:29:01;;;;;;;;;;;;;;;17.74;66.45;102816.94;5036626;28;1552;-60
2021/03/02 00:31:27;;;;;;;;;;;;;;;17.78;66.77;102806.00;5036236;28;1564;-57
2021/03/02 00:33:52;;;;;;;;;;;;;;;17.74;67.33;102806.25;5036518;28;1449;-57
2021/03/02 00:36:17;;;;;;;;;;;;;;;17.74;66.29;102812.47;5036089;28;1512;-63
2021/03/02 00:38:43;;;;;;;;;;;;;;;17.74;66.46;102806.25;5036237;28;1534;-63
2021/03/02 00:41:08;;;;;;;;;;;;;;;17.73;67.34;102802.72;5036151;28;1894;-64
2021/03/02 00:43:33;;;;;;;;;;;;;;;17.73;67.06;102805.38;5036286;28;1509;-57
2021/03/02 00:45:59;;;;;;;;;;;;;;;17.70;66.61;102811.75;5036323;28;1529;-64
2021/03/02 00:48:24;;;;;;;;;;;;;;;17.70;67.37;102806.38;5035612;28;1671;-64
2021/03/02 00:50:50;;;;;;;;;;;;;;;17.69;67.38;102799.31;5036089;28;1628;-57
2021/03/02 00:53:15;;;;;;;;;;;;;;;17.69;67.46;102793.13;5035960;28;1533;-57
2021/03/02 00:55:41;;;;;;;;;;;;;;;17.69;66.69;102790.44;5035749;28;1517;-64
2021/03/02 00:58:06;;;;;;;;;;;;;;;17.67;66.91;102792.31;5034879;28;1597;-57
2021/03/02 01:00:31;;;;;;;;;;;;;;;17.69;66.79;102788.63;5030647;28;1951;-64
2021/03/02 01:02:57;;;;;;;;;;;;;;;17.75;67.09;102797.28;5035311;28;1452;-74
2021/03/02 01:05:22;;;;;;;;;;;;;;;17.77;67.71;102793.59;5032543;28;1549;-58
2021/03/02 01:07:47;;;;;;;;;;;;;;;17.80;66.98;102797.91;5026628;28;10834;-57
2021/03/02 01:10:14;;;;;;;;;;;;;;;17.81;67.23;102799.66;5031823;28;1526;-57
2021/03/02 01:12:39;;;;;;;;;;;;;;;17.74;67.63;102795.53;5035103;28;1497;-64
2021/03/02 01:15:06;;;;;;;;;;;;;;;17.72;67.29;102803.66;5035572;28;1458;-58
2021/03/02 01:17:31;;;;;;;;;;;;;;;17.70;67.57;102784.13;5035110;28;1581;-57
2021/03/02 01:19:56;;;;;;;;;;;;;;;17.68;67.08;102794.91;5035262;28;1918;-57
2021/03/02 01:22:22;;;;;;;;;;;;;;;17.70;67.35;102800.19;5034827;28;1466;-64
2021/03/02 01:24:47;;;;;;;;;;;;;;;17.68;67.16;102783.34;5035367;28;1589;-57
2021/03/02 01:27:13;;;;;;;;;;;;;;;17.67;66.78;102792.31;5035275;28;1517;-57
2021/03/02 01:29:38;;;;;;;;;;;;;;;17.67;66.95;102777.13;5035253;28;1475;-57
2021/03/02 01:32:04;;;;;;;;;;;;;;;17.66;67.15;102774.53;5034975;28;1577;-57
2021/03/02 01:34:30;;;;;;;;;;;;;;;17.66;67.02;102788.75;5035151;28;1529;-57
2021/03/02 01:36:55;;;;;;;;;;;;;;;17.67;67.42;102786.97;5035293;28;1616;-64
2021/03/02 01:39:20;;;;;;;;;;;;;;;17.67;67.50;102787.84;5034597;28;1882;-64
2021/03/02 01:42:04;;;;;;;;;;;;;;;17.64;67.22;102782.63;5035189;28;1525;-64
2021/03/02 01:44:29;;;;;;;;;;;;;;;17.66;66.57;102788.75;5033001;28;1534;-60
2021/03/02 01:46:55;;;;;;;;;;;;;;;17.64;67.26;102781.75;5034999;28;1672;-57
2021/03/02 01:49:20;;;;;;;;;;;;;;;17.64;66.80;102784.44;5034898;28;1505;-58
2021/03/02 01:51:46;;;;;;;;;;;;;;;17.62;66.80;102770.28;5034601;28;1599;-64
2021/03/02 01:54:12;;;;;;;;;;;;;;;17.63;67.17;102780.03;5034319;28;1411;-64
2021/03/02 01:56:38;;;;;;;;;;;;;;;17.59;66.79;102775.78;5034626;28;1584;-64
2021/03/02 01:59:03;;;;;;;;;;;;;;;17.62;67.77;102776.47;5034180;28;1542;-64
2021/03/02 02:01:29;;;;;;;;;;;;;;;17.59;67.73;102768.63;5031734;28;1881;-64
2021/03/02 02:03:57;;;;;;;;;;;;;;;17.60;67.35;102767.66;5034959;28;1521;-57
2021/03/02 02:06:29;;;;;;;;;;;;;;;17.61;66.92;102789.97;5033918;28;1656;-64
2021/03/02 02:09:02;;;;;;;;;;;;;;;17.58;67.84;102780.25;5030590;28;1581;-57
2021/03/02 02:11:38;;;;;;;;;;;;;;;17.57;66.99;102788.38;5034280;28;1561;-57
2021/03/02 02:14:09;;;;;;;;;;;;;;;17.55;66.83;102779.53;5033991;28;1505;-57
2021/03/02 02:16:36;;;;;;;;;;;;;;;17.55;67.64;102774.19;5033861;28;1549;-57
2021/03/02 02:19:03;;;;;;;;;;;;;;;17.56;66.95;102759.88;5033576;28;1524;-57
2021/03/02 02:21:39;;;;;;;;;;;;;;;17.57;67.79;102770.50;5028137;28;1910;-57
2021/03/02 02:24:11;;;;;;;;;;;;;;;17.55;67.54;102774.19;5028711;28;1295;-64
2021/03/02 02:26:48;;;;;;;;;;;;;;;17.54;67.66;102772.47;5033694;28;1572;-63
2021/03/02 02:29:17;;;;;;;;;;;;;;;17.55;66.61;102772.41;5032464;28;1341;-64
2021/03/02 02:31:43;;;;;;;;;;;;;;;17.56;66.76;102775.94;5030500;28;1310;-57
2021/03/02 02:34:13;;;;;;;;;;;;;;;17.58;66.96;102779.41;5031284;28;1239;-57
2021/03/02 02:36:39;;;;;;;;;;;;;;;17.55;66.37;102775.06;5032679;28;1254;-64
2021/03/02 02:39:06;;;;;;;;;;;;;;;17.56;66.92;102786.63;5029488;28;1200;-64
2021/03/02 02:41:31;;;;;;;;;;;;;;;17.55;66.66;102779.53;5032420;28;1882;-64
2021/03/02 02:43:57;;;;;;;;;;;;;;;17.57;66.67;102777.69;5031159;28;1258;-64
2021/03/02 02:46:24;;;;;;;;;;;;;;;17.63;66.53;102788.94;5032270;28;1315;-64
2021/03/02 02:48:50;;;;;;;;;;;;;;;17.72;65.85;102784.06;5032302;28;1270;-64
2021/03/02 02:51:16;;;;;;;;;;;;;;;17.86;66.73;102782.41;5029167;28;1494;-57
2021/03/02 02:53:41;;;;;;;;;;;;;;;17.94;65.42;102783.84;5032739;28;1290;-57
2021/03/02 02:56:09;;;;;;;;;;;;;;;18.02;66.19;102789.66;5032100;28;1486;-64
2021/03/02 02:58:43;;;;;;;;;;;;;;;18.04;65.83;102782.41;5030878;28;1548;-57
2021/03/02 03:01:09;;;;;;;;;;;;;;;18.08;66.30;102779.53;5042521;22;1976;-46
2021/03/02 03:03:36;;;;;;;;;;;;;;;18.08;65.56;102782.19;5022529;28;1378;-46
2021/03/02 03:06:03;;;;;;;;;;;;;;;18.11;66.13;102783.84;5024984;28;1362;-47
2021/03/02 03:08:30;;;;;;;;;;;;;;;18.12;65.60;102774.84;5023644;28;1519;-46
2021/03/02 03:10:57;;;;;;;;;;;;;;;18.12;65.79;102774.84;5038128;23;3521;-57
2021/03/02 03:13:25;;;;;;;;;;;;;;;18.11;66.07;102783.00;5014642;28;1640;-64
2021/03/02 03:15:53;;;;;;;;;;;;;;;18.11;65.46;102781.16;5013975;28;1382;-64
2021/03/02 03:18:22;;;;;;;;;;;;;;;18.09;65.48;102786.59;5013378;28;1279;-58
2021/03/02 03:20:49;;;;;;;;;;;;;;;18.07;65.31;102776.91;5011387;28;1918;-57
2021/03/02 03:23:14;;;;;;;;;;;;;;;18.04;65.87;102777.06;5010741;28;1509;-64
2021/03/02 03:25:40;;;;;;;;;;;;;;;18.06;65.32;102785.88;5013600;28;1542;-57
2021/03/02 03:28:06;;;;;;;;;;;;;;;18.03;65.47;102770.00;5011099;28;1447;-64
2021/03/02 03:30:31;;;;;;;;;;;;;;;18.02;65.35;102770.94;5013299;28;1369;-64
2021/03/02 03:33:02;;;;;;;;;;;;;;;18.02;65.41;102768.25;5013834;28;1533;-64
2021/03/02 03:35:27;;;;;;;;;;;;;;;18.02;65.99;102787.00;5013718;28;1613;-64
2021/03/02 03:37:53;;;;;;;;;;;;;;;17.98;65.20;102780.06;5013819;28;1660;-64
2021/03/02 03:40:18;;;;;;;;;;;;;;;17.96;65.56;102776.59;5013723;28;1945;-64
2021/03/02 03:42:44;;;;;;;;;;;;;;;17.97;65.25;102794.41;5014054;28;1565;-57
2021/03/02 03:45:10;;;;;;;;;;;;;;;17.97;65.49;102787.25;5013334;28;1542;-57
2021/03/02 03:47:35;;;;;;;;;;;;;;;17.94;66.05;102781.16;5013966;28;1561;-57
2021/03/02 03:50:01;;;;;;;;;;;;;;;17.90;65.68;102783.13;5013743;28;1589;-57
2021/03/02 03:52:26;;;;;;;;;;;;;;;17.89;66.22;102778.75;5015347;28;1597;-57
2021/03/02 03:54:54;;;;;;;;;;;;;;;17.88;65.35;102775.19;5017234;28;1534;-57
2021/03/02 03:57:20;;;;;;;;;;;;;;;17.88;66.25;102774.31;5017401;28;1558;-64
2021/03/02 03:59:45;;;;;;;;;;;;;;;17.85;65.34;102783.38;5017101;28;1897;-63
2021/03/02 04:02:11;;;;;;;;;;;;;;;17.83;66.00;102779.03;5016984;28;1671;-64
2021/03/02 04:04:37;;;;;;;;;;;;;;;17.80;65.76;102773.81;5016837;28;1466;-57
2021/03/02 04:07:03;;;;;;;;;;;;;;;17.80;65.66;102790.72;5016729;28;1566;-57
2021/03/02 04:09:28;;;;;;;;;;;;;;;17.77;66.21;102772.19;5017125;28;1582;-70
2021/03/02 04:11:54;;;;;;;;;;;;;;;17.78;66.07;102776.56;5016348;28;1668;-64
2021/03/02 04:14:19;;;;;;;;;;;;;;;17.83;67.25;102784.38;5016108;28;1660;-65
2021/03/02 04:16:45;;;;;;;;;;;;;;;17.80;67.62;102789.88;5016650;28;1526;-57
2021/03/02 04:19:10;;;;;;;;;;;;;;;17.79;67.62;102783.66;5015963;28;1510;-57
2021/03/02 04:21:36;;;;;;;;;;;;;;;17.83;67.45;102760.28;5016289;28;1902;-57
2021/03/02 04:24:01;;;;;;;;;;;;;;;17.85;67.78;102774.50;5016636;28;1578;-57
2021/03/02 04:26:27;;;;;;;;;;;;;;;17.91;67.55;102776.00;5014822;28;1530;-57
2021/03/02 04:28:52;;;;;;;;;;;;;;;17.84;67.67;102776.28;4997933;28;1644;-58
2021/03/02 04:31:17;;;;;;;;;;;;;;;17.83;68.42;102773.69;5010616;28;1512;-65
2021/03/02 04:33:43;;;;;;;;;;;;;;;17.73;67.93;102767.94;5011590;28;1472;-65
2021/03/02 04:36:09;;;;;;;;;;;;;;;17.70;67.66;102768.06;5014496;28;1263;-62
2021/03/02 04:38:34;;;;;;;;;;;;;;;17.73;66.35;102761.72;5016040;28;1529;-65
2021/03/02 04:41:00;;;;;;;;;;;;;;;17.76;66.06;102767.75;5015914;28;1940;-64
2021/03/02 04:43:25;;;;;;;;;;;;;;;17.75;66.74;102765.19;5015991;28;1633;-57
2021/03/02 04:45:51;;;;;;;;;;;;;;;17.73;66.61;102762.56;5015530;28;1560;-64
2021/03/02 04:48:17;;;;;;;;;;;;;;;17.70;66.39;102776.97;5015853;28;1602;-64
2021/03/02 04:50:42;;;;;;;;;;;;;;;17.74;66.87;102779.50;5016376;28;1517;-65
2021/03/02 04:53:07;;;;;;;;;;;;;;;17.75;66.71;102775.88;5015967;28;1499;-64
2021/03/02 04:55:33;;;;;;;;;;;;;;;17.72;66.92;102778.69;5016146;28;1624;-57
2021/03/02 04:57:58;;;;;;;;;;;;;;;17.69;66.92;102774.38;5016154;28;1471;-64
2021/03/02 05:00:24;;;;;;;;;;;;;;;17.70;67.05;102760.03;5015998;28;1855;-64
2021/03/02 05:02:49;;;;;;;;;;;;;;;17.67;66.37;102781.63;5015734;28;1684;-57
2021/03/02 05:05:14;;;;;;;;;;;;;;;17.65;66.94;102775.47;5015808;28;1569;-57
2021/03/02 05:07:40;;;;;;;;;;;;;;;17.65;67.13;102775.47;5015999;28;1609;-57
2021/03/02 05:10:05;;;;;;;;;;;;;;;17.66;66.71;102793.25;5016245;28;1593;-64
2021/03/02 05:12:31;;;;;;;;;;;;;;;17.65;67.01;102778.16;5015172;28;1570;-57
2021/03/02 05:14:56;;;;;;;;;;;;;;;17.65;66.17;102780.84;5015729;28;1689;-57
2021/03/02 05:17:22;;;;;;;;;;;;;;;17.64;66.88;102769.25;5015346;28;1570;-57
2021/03/02 05:19:47;;;;;;;;;;;;;;;17.63;66.76;102775.56;5015882;28;1971;-64
2021/03/02 05:22:12;;;;;;;;;;;;;;;17.64;66.88;102779.09;5015454;28;1660;-57
2021/03/02 05:24:38;;;;;;;;;;;;;;;17.63;66.63;102772.03;5015290;28;1474;-58
2021/03/02 05:27:04;;;;;;;;;;;;;;;17.64;66.75;102789.78;5015123;28;1652;-57
2021/03/02 05:29:29;;;;;;;;;;;;;;;17.60;66.87;102773.00;5015717;28;1482;-64
2021/03/02 05:31:54;;;;;;;;;;;;;;;17.62;67.27;102771.13;5015902;28;1553;-64
2021/03/02 05:34:20;;;;;;;;;;;;;;;17.60;66.24;102767.66;5015106;28;1649;-65
2021/03/02 05:36:45;;;;;;;;;;;;;;;17.63;67.13;102777.38;5012679;28;1533;-64
2021/03/02 05:39:10;;;;;;;;;;;;;;;17.62;66.63;102780.97;5015272;28;1585;-57
2021/03/02 05:41:36;;;;;;;;;;;;;;;17.62;66.99;102775.63;5015142;28;1893;-64
2021/03/02 05:44:02;;;;;;;;;;;;;;;17.59;66.42;102782.00;5015216;28;1582;-64
2021/03/02 05:46:28;;;;;;;;;;;;;;;17.63;65.91;102777.38;5014829;28;1570;-64
2021/03/02 05:48:53;;;;;;;;;;;;;;;17.63;66.13;102772.88;5015137;28;1562;-57
2021/03/02 05:51:18;;;;;;;;;;;;;;;17.63;66.51;102778.22;5015156;28;1581;-64
2021/03/02 05:53:44;;;;;;;;;;;;;;;17.64;66.02;102768.38;5015357;28;1542;-57
2021/03/02 05:56:10;;;;;;;;;;;;;;;17.67;66.42;102773.59;5014944;28;1498;-64
2021/03/02 05:58:35;;;;;;;;;;;;;;;17.64;66.40;102773.72;5015035;28;1542;-64
2021/03/02 06:01:01;;;;;;;;;;;;;;;17.65;66.25;102778.16;5014812;28;1890;-57
2021/03/02 06:03:26;;;;;;;;;;;;;;;17.62;66.40;102765.78;5008338;28;1475;-64
2021/03/02 06:05:52;;;;;;;;;;;;;;;17.66;66.61;102791.44;5003426;28;1486;-64
2021/03/02 06:08:17;;;;;;;;;;;;;;;17.76;66.31;102772.25;5008565;28;1461;-63
2021/03/02 06:10:42;;;;;;;;;;;;;;;17.79;66.35;102772.97;5005252;28;1538;-59
2021/03/02 06:13:08;;;;;;;;;;;;;;;17.81;66.97;102773.75;5004030;28;1303;-62
2021/03/02 06:15:33;;;;;;;;;;;;;;;17.82;66.48;102767.44;5003968;28;1478;-63
2021/03/02 06:18:08;;;;;;;;;;;;;;;17.83;66.09;102774.56;5003105;28;1492;-68
2021/03/02 06:20:34;;;;;;;;;;;;;;;17.87;65.73;102776.13;5008941;28;1926;-57
2021/03/02 06:22:59;;;;;;;;;;;;;;;17.87;66.76;102786.00;5007668;28;1552;-57
2021/03/02 06:25:29;;;;;;;;;;;;;;;17.87;66.02;102783.31;4981567;28;10874;-56
2021/03/02 06:27:55;;;;;;;;;;;;;;;17.91;65.84;102784.03;4984171;28;1411;-62
2021/03/02 06:30:21;;;;;;;;;;;;;;;18.09;66.17;102786.59;4974016;28;1177;-52
2021/03/02 06:32:48;;;;;;;;;;;;;;;18.17;65.90;102780.84;4968314;28;1407;-56
2021/03/02 06:35:32;;;;;;;;;;;;;;;18.33;65.34;102788.94;4973466;28;1438;-62
2021/03/02 06:37:57;;;;;;;;;;;;;;;18.64;65.46;102781.91;4978155;28;1375;-56
2021/03/02 06:40:39;;;;;;;;;;;;;;;18.76;65.06;102780.38;4978662;28;1950;-54
2021/03/02 06:43:04;;;;;;;;;;;;;;;18.86;65.16;102781.59;4988202;28;1193;-61
2021/03/02 06:45:30;;;;;;;;;;;;;;;19.04;65.08;102775.22;4986708;28;1524;-57
2021/03/02 06:48:05;;;;;;;;;;;;;;;19.20;64.56;102767.19;4985907;28;1401;-55
2021/03/02 06:50:36;;;;;;;;;;;;;;;19.16;65.82;102773.69;4983829;28;1494;-67
2021/03/02 06:53:07;;;;;;;;;;;;;;;19.23;65.86;102763.44;4984514;28;1434;-60
2021/03/02 06:55:32;;;;;;;;;;;;;;;19.40;67.06;102770.53;4984958;28;1386;-67
2021/03/02 06:58:36;;;;;;;;;;;;;;;19.43;65.99;102765.81;4979982;28;1288;-60
2021/03/02 07:01:01;;;;;;;;;;;;;;;19.27;66.17;102765.84;4909039;29;1934;-62
2021/03/02 07:03:28;;;;;;;;;;;;;;;19.24;66.77;102770.56;4903245;28;11034;-56
2021/03/02 07:05:54;;;;;;;;;;;;;;;19.16;66.61;102762.94;4943161;28;10878;-60
2021/03/02 07:08:20;;;;;;;;;;;;;;;19.22;67.03;102767.09;5000479;28;1427;-59
2021/03/02 07:10:50;;;;;;;;;;;;;;;19.33;66.91;102756.59;4998142;28;1470;-60
2021/03/02 07:13:16;;;;;;;;;;;;;;;19.43;66.46;102764.97;4999845;28;1479;-57
2021/03/02 07:15:42;;;;;;;;;;;;;;;19.34;67.02;102771.75;5001205;28;1423;-60
2021/03/02 07:18:16;;;;;;;;;;;;;;;19.30;67.11;102759.47;5007558;28;1154;-60
2021/03/02 07:20:47;;;;;;;;;;;;;;;19.39;66.80;102766.97;4993997;28;1988;-55
2021/03/02 07:23:15;;;;;;;;;;;;;;;19.11;66.98;102765.00;4999285;28;1394;-60
2021/03/02 07:25:42;;;;;;;;;;;;;;;18.98;67.32;102770.22;5003367;28;1461;-60
2021/03/02 07:28:09;;;;;;;;;;;;;;;18.98;66.80;102750.56;5003801;28;1499;-55
2021/03/02 07:30:35;;;;;;;;;;;;;;;18.97;66.85;102762.25;4999788;28;1450;-55
2021/03/02 07:33:01;;;;;;;;;;;;;;;18.99;66.39;102766.56;5005880;28;1630;-54
2021/03/02 07:35:27;;;;;;;;;;;;;;;18.91;66.35;102760.78;5006119;28;1398;-58
2021/03/02 07:38:10;;;;;;;;;;;;;;;18.89;65.72;102754.66;5006533;28;1409;-55
2021/03/02 07:40:41;;;;;;;;;;;;;;;18.88;64.52;102758.28;5007016;28;1894;-58
2021/03/02 07:43:25;;;;;;;;;;;;;;;18.65;61.22;102751.50;5003756;28;1443;-56
2021/03/02 07:45:51;;;;;;;;;;;;;;;18.57;63.45;102743.88;5006644;28;1452;-59
2021/03/02 07:48:26;;;;;;;;;;;;;;;18.59;64.25;102741.13;5009168;28;1455;-56
2021/03/02 07:51:24;;;;;;;;;;;;;;;18.55;64.50;102736.88;5006993;28;1440;-59
2021/03/02 07:53:50;;;;;;;;;;;;;;;18.57;64.59;102753.72;4976520;28;1717;-56
2021/03/02 07:56:23;;;;;;;;;;;;;;;18.51;64.66;102752.25;5009289;28;1403;-56
2021/03/02 07:59:08;;;;;;;;;;;;;;;18.48;64.88;102752.41;5003159;28;1425;-56
2021/03/02 08:01:33;;;;;;;;;;;;;;;18.47;64.84;102742.66;5011269;28;1894;-57
2021/03/02 08:04:14;;;;;;;;;;;;;;;18.47;64.80;102748.88;5011346;28;1484;-56
2021/03/02 08:06:39;;;;;;;;;;;;;;;18.42;64.63;102745.59;5006695;28;1504;-57
2021/03/02 08:09:24;;;;;;;;;;;;;;;18.42;65.04;102745.59;5004828;28;1670;-59
2021/03/02 08:11:50;;;;;;;;;;;;;;;18.44;64.83;102737.44;4996453;28;1720;-59
2021/03/02 08:14:15;;;;;;;;;;;;;;;18.40;64.63;102746.59;5000881;28;1569;-56
2021/03/02 08:16:49;;;;;;;;;;;;;;;18.38;65.17;102740.47;5004806;28;1586;-56
2021/03/02 08:19:34;;;;;;;;;;;;;;;18.35;65.12;102725.44;5007808;28;1651;-59
2021/03/02 08:22:00;;;;;;;;;;;;;;;18.34;65.04;102741.56;5005983;28;1539;-59
2021/03/02 08:24:45;;;;;;;;;;;;;;;18.33;64.99;102731.81;5003834;28;1234;-59
2021/03/02 08:27:10;;;;;;;;;;;;;;;18.32;65.13;102738.97;5000006;28;1444;-57
2021/03/02 08:29:46;;;;;;;;;;;;;;;18.31;65.11;102739.06;5002918;28;1519;-56
2021/03/02 08:32:11;;;;;;;;;;;;;;;18.26;65.00;102742.88;4999726;28;1588;-59
2021/03/02 08:34:37;;;;;;;;;;;;;;;18.22;64.71;102741.31;5005211;28;1614;-58
2021/03/02 08:37:02;;;;;;;;;;;;;;;18.21;65.19;102739.56;5004071;28;1555;-57
2021/03/02 08:39:27;;;;;;;;;;;;;;;18.24;65.04;102731.38;5008744;28;1965;-59
2021/03/02 08:41:53;;;;;;;;;;;;;;;18.28;64.65;102730.25;5003747;28;1625;-56
2021/03/02 08:44:23;;;;;;;;;;;;;;;18.37;64.95;102730.72;5000541;28;1563;-56
2021/03/02 08:46:52;;;;;;;;;;;;;;;18.41;64.93;102719.72;5001734;28;1619;-59
2021/03/02 08:49:18;;;;;;;;;;;;;;;18.48;63.75;102725.59;5008193;28;1456;-59
2021/03/02 08:51:44;;;;;;;;;;;;;;;18.55;64.39;102739.56;5002137;28;1541;-56
2021/03/02 08:54:09;;;;;;;;;;;;;;;18.57;64.39;102725.09;5003414;28;1695;-59
2021/03/02 08:56:35;;;;;;;;;;;;;;;18.61;63.96;102718.63;5003420;28;1410;-59
2021/03/02 08:59:08;;;;;;;;;;;;;;;18.63;64.22;102718.56;5006116;28;1446;-59
2021/03/02 09:04:14;;;;;;;;;;;;;;;18.71;63.95;102723.50;5010782;28;1927;-48
2021/03/02 09:06:44;;;;;;;;;;;;;;;18.71;64.02;102726.16;5024492;28;2036;-48
2021/03/02 09:09:10;;;;;;;;;;;;;;;18.71;63.90;102723.50;5025614;28;1837;-47
2021/03/02 09:11:40;;;;;;;;;;;;;;;18.71;63.96;102715.44;5027210;28;1873;-48
2021/03/02 09:14:10;;;;;;;;;;;;;;;18.68;64.09;102719.13;5018873;28;1566;-47
2021/03/02 09:16:48;;;;;;;;;;;;;;;18.74;63.84;102715.25;5004428;28;1589;-48
2021/03/02 09:19:41;;;;;;;;;;;;;;;18.70;63.96;102701.16;5026421;28;1810;-47
2021/03/02 09:22:10;;;;;;;;;;;;;;;18.74;64.01;102718.81;5025356;28;2382;-47
2021/03/02 09:24:56;;;;;;;;;;;;;;;18.76;63.44;102708.88;5030333;28;1871;-48
2021/03/02 09:27:28;;;;;;;;;;;;;;;18.63;63.56;102706.00;3975594;28;10000781;-47
2021/03/02 09:29:53;;;;;;;;;;;;;;;18.43;63.61;102709.81;5010993;28;1741;-47
2021/03/02 09:32:27;;;;;;;;;;;;;;;18.36;63.87;102705.72;5010185;28;2015;-47
2021/03/02 09:34:57;;;;;;;;;;;;;;;18.34;62.96;102698.72;5014821;28;1751;-49
2021/03/02 09:37:22;;;;;;;;;;;;;;;18.44;63.20;102697.25;5019504;28;1606;-48
2021/03/02 09:40:17;;;;;;;;;;;;;;;18.42;62.90;102696.47;4999035;28;1894;-47
2021/03/02 09:42:52;;;;;;;;;;;;;;;18.49;60.98;102703.25;5017830;28;1930;-48
2021/03/02 09:45:17;;;;;;;;;;;;;;;18.50;59.12;102704.94;5008641;28;1503;-47
2021/03/02 09:47:44;;;;;;;;;;;;;;;18.59;58.91;102699.09;5013507;28;1730;-47
2021/03/02 09:50:10;;;;;;;;;;;;;;;18.64;58.91;102691.69;5002404;28;1925;-47
2021/03/02 09:52:45;;;;;;;;;;;;;;;18.66;58.42;102679.06;5013891;28;1745;-47
2021/03/02 09:55:10;;;;;;;;;;;;;;;18.72;58.65;102690.34;5017940;28;1404;-48
2021/03/02 09:57:50;;;;;;;;;;;;;;;18.59;57.40;102680.34;5012130;28;1825;-49
2021/03/02 10:00:17;;;;;;;;;;;;;;;18.66;59.43;102680.84;5019248;28;1945;-47
2021/03/02 10:02:50;;;;;;;;;;;;;;;18.71;57.38;102684.16;5025052;28;1783;-47
2021/03/02 10:05:35;;;;;;;;;;;;;;;18.62;56.78;102677.50;5005633;28;1720;-47
2021/03/02 10:08:20;;;;;;;;;;;;;;;18.44;57.39;102679.41;5018495;28;1653;-48
2021/03/02 10:10:46;;;;;;;;;;;;;;;18.49;57.59;102657.69;5017395;28;1574;-48
2021/03/02 10:13:11;;;;;;;;;;;;;;;18.47;57.25;102656.91;5018596;28;2175;-47
2021/03/02 10:15:37;;;;;;;;;;;;;;;18.43;56.57;102650.00;5018170;28;1566;-47
2021/03/02 10:18:21;;;;;;;;;;;;;;;18.51;57.43;102639.72;5014729;28;1742;-48
2021/03/02 10:21:05;;;;;;;;;;;;;;;18.29;56.28;102654.31;5014656;28;1971;-48
2021/03/02 10:23:31;;;;;;;;;;;;;;;18.13;53.74;102642.72;5012980;28;1874;-47
2021/03/02 10:25:57;;;;;;;;;;;;;;;18.22;55.62;102639.53;5017320;28;1627;-48
2021/03/02 10:28:32;;;;;;;;;;;;;;;18.29;55.40;102626.66;5016302;28;2160;-46
2021/03/02 10:30:57;;;;;;;;;;;;;;;18.45;56.40;102627.53;5012611;28;1764;-47
2021/03/02 10:33:23;;;;;;;;;;;;;;;18.38;55.76;102634.19;5011654;28;1806;-46
2021/03/02 10:35:48;;;;;;;;;;;;;;;18.44;55.80;102624.94;5014008;28;1754;-49
2021/03/02 10:38:14;;;;;;;;;;;;;;;18.47;55.90;102616.75;5017432;28;1703;-46
2021/03/02 10:40:39;;;;;;;;;;;;;;;18.47;55.18;102611.38;5017546;28;1981;-47
2021/03/02 10:43:05;;;;;;;;;;;;;;;18.39;55.58;102606.44;5018570;28;1430;-47
2021/03/02 10:45:31;;;;;;;;;;;;;;;18.38;55.86;102611.88;5019022;28;1575;-47
2021/03/02 10:47:58;;;;;;;;;;;;;;;18.34;56.14;102603.16;5018371;28;1131;-47
2021/03/02 10:50:24;;;;;;;;;;;;;;;18.32;56.69;102604.19;5026067;28;1566;-47
2021/03/02 10:52:50;;;;;;;;;;;;;;;18.28;56.36;102595.47;5025785;28;1654;-46
2021/03/02 10:55:17;;;;;;;;;;;;;;;18.19;56.03;102582.63;5016893;28;1520;-47
2021/03/02 10:57:42;;;;;;;;;;;;;;;18.24;56.60;102589.44;5019173;28;1644;-48
2021/03/02 11:00:16;;;;;;;;;;;;;;;18.25;56.09;102587.63;5017838;28;1878;-46
2021/03/02 11:02:41;;;;;;;;;;;;;;;18.12;55.12;102584.75;5023147;28;1755;-45
2021/03/02 11:05:08;;;;;;;;;;;;;;;17.80;57.64;102571.28;5025677;28;1566;-47
2021/03/02 11:07:34;;;;;;;;;;;;;;;18.02;56.35;102571.00;5023498;28;1861;-47
2021/03/02 11:09:59;;;;;;;;;;;;;;;18.09;56.55;102564.38;5025113;28;1856;-47
2021/03/02 11:12:26;;;;;;;;;;;;;;;18.15;56.11;102557.81;5025979;28;1755;-47
2021/03/02 11:14:53;;;;;;;;;;;;;;;18.11;56.54;102542.88;5030608;28;1427;-47
2021/03/02 11:17:19;;;;;;;;;;;;;;;18.13;55.62;102557.03;5034001;28;1514;-48
2021/03/02 11:19:44;;;;;;;;;;;;;;;17.95;53.64;102548.22;5027800;28;1914;-47
2021/03/02 11:22:09;;;;;;;;;;;;;;;17.76;55.43;102548.31;5033361;28;1743;-47
2021/03/02 11:24:34;;;;;;;;;;;;;;;17.69;53.41;102544.28;5032080;28;1405;-47
2021/03/02 11:27:01;;;;;;;;;;;;;;;17.66;55.63;102539.06;5030824;28;1603;-47
2021/03/02 11:29:26;;;;;;;;;;;;;;;17.80;54.68;102532.97;5032264;28;1755;-47
2021/03/02 11:31:57;;;;;;;;;;;;;;;17.95;53.87;102524.13;5027154;28;1428;-47
2021/03/02 11:34:24;;;;;;;;;;;;;;;18.04;54.72;102530.78;5031229;28;1728;-48
2021/03/02 11:36:50;;;;;;;;;;;;;;;18.11;54.87;102525.97;5028137;28;1670;-47
2021/03/02 11:39:15;;;;;;;;;;;;;;;18.13;55.22;102529.41;5027908;28;1456;-47
2021/03/02 11:41:40;;;;;;;;;;;;;;;17.24;53.60;102516.38;5031267;28;1978;-47
2021/03/02 11:44:09;;;;;;;;;;;;;;;17.30;54.41;102513.38;5026279;28;1659;-48
2021/03/02 11:46:38;;;;;;;;;;;;;;;17.48;55.90;102520.41;5024970;28;2448;-47
2021/03/02 11:49:06;;;;;;;;;;;;;;;17.57;56.39;102507.50;5030010;28;1522;-47
2021/03/02 11:51:32;;;;;;;;;;;;;;;17.64;54.66;102506.19;5034000;28;1916;-47
2021/03/02 11:53:57;;;;;;;;;;;;;;;17.61;54.56;102495.69;5025987;28;1918;-47
2021/03/02 11:56:22;;;;;;;;;;;;;;;17.68;55.68;102489.88;5025207;28;1711;-47
2021/03/02 11:58:47;;;;;;;;;;;;;;;17.82;55.34;102482.91;5026711;28;1570;-47
2021/03/02 12:01:13;;;;;;;;;;;;;;;17.67;53.83;102472.13;5020981;28;1945;-47
2021/03/02 12:03:38;;;;;;;;;;;;;;;17.91;54.88;102477.09;5028444;28;1562;-47
2021/03/02 12:06:05;;;;;;;;;;;;;;;17.82;54.74;102473.06;5030696;28;1698;-49
2021/03/02 12:08:30;;;;;;;;;;;;;;;17.76;54.32;102469.88;5032277;28;1806;-48
2021/03/02 12:10:56;;;;;;;;;;;;;;;17.76;53.49;102456.50;5023985;28;1785;-48
2021/03/02 12:13:22;;;;;;;;;;;;;;;17.78;55.29;102460.81;5029020;28;1712;-48
2021/03/02 12:15:56;;;;;;;;;;;;;;;17.68;54.73;102449.75;5029231;28;1946;-48
2021/03/02 12:18:22;;;;;;;;;;;;;;;17.74;55.91;102445.00;5031111;28;1739;-48
2021/03/02 12:20:50;;;;;;;;;;;;;;;17.76;55.17;102452.00;5026376;28;1913;-48
2021/03/02 12:23:16;;;;;;;;;;;;;;;17.73;54.09;102457.53;5031613;28;1667;-48
2021/03/02 12:25:41;;;;;;;;;;;;;;;17.87;53.96;102440.75;5030115;28;1976;-48
2021/03/02 12:28:07;;;;;;;;;;;;;;;18.01;56.38;102439.94;5032729;28;1585;-48
2021/03/02 12:30:33;;;;;;;;;;;;;;;17.83;54.87;102437.38;5030404;28;1567;-48
2021/03/02 12:33:00;;;;;;;;;;;;;;;17.67;54.41;102426.63;5013112;28;1510;-50
2021/03/02 12:35:25;;;;;;;;;;;;;;;17.69;52.97;102437.25;5028185;28;1485;-48
2021/03/02 12:37:51;;;;;;;;;;;;;;;17.55;51.73;102423.75;5012747;28;1404;-48
2021/03/02 12:40:17;;;;;;;;;;;;;;;17.00;54.44;102449.91;5031999;28;1882;-48
2021/03/02 12:42:43;;;;;;;;;;;;;;;17.35;50.15;102441.81;5031932;28;1537;-48
2021/03/02 12:45:11;;;;;;;;;;;;;;;17.63;51.41;102424.22;5029472;28;1715;-48
2021/03/02 12:47:37;;;;;;;;;;;;;;;17.75;51.69;102423.53;5032868;28;1552;-48
2021/03/02 12:50:07;;;;;;;;;;;;;;;17.80;48.83;102409.88;5024955;28;1734;-48
2021/03/02 12:52:34;;;;;;;;;;;;;;;17.81;50.51;102407.13;5030926;28;1593;-50